createdAt,value
2023-05-02T00:00:20.666Z,8.90
2023-05-02T00:03:11.196Z,9.10
2023-05-02T00:05:40.656Z,5.10
2023-05-02T00:08:11.757Z,8.60
2023-05-02T00:10:40.203Z,6.50
2023-05-02T00:13:08.526Z,9.30
2023-05-02T00:15:37.081Z,8.80
2023-05-02T00:18:05.832Z,10.10
2023-05-02T00:20:34.497Z,6.30
2023-05-02T00:23:03.090Z,9.60
2023-05-02T00:25:32.031Z,10.10
2023-05-02T00:28:00.486Z,6.00
2023-05-02T00:30:30.323Z,9.60
2023-05-02T00:32:58.668Z,9.40
2023-05-02T00:35:27.441Z,6.80
2023-05-02T00:37:56.693Z,10.00
2023-05-02T00:40:25.107Z,9.90
2023-05-02T00:42:53.819Z,9.50
2023-05-02T00:45:22.743Z,7.40
2023-05-02T00:47:51.219Z,10.00
2023-05-02T00:50:20.328Z,5.50
2023-05-02T00:52:49.167Z,9.60
2023-05-02T00:55:17.847Z,5.70
2023-05-02T00:57:47.944Z,9.20
2023-05-02T01:00:16.647Z,9.50
2023-05-02T01:02:51.725Z,9.40
2023-05-02T01:05:26.900Z,9.40
2023-05-02T01:08:11.742Z,6.30
2023-05-02T01:10:49.860Z,5.20
2023-05-02T01:13:22.176Z,9.10
2023-05-02T01:15:52.751Z,8.90
2023-05-02T01:18:23.908Z,7.10
2023-05-02T01:20:56.896Z,5.70
2023-05-02T01:23:31.062Z,9.50
2023-05-02T01:26:13.571Z,9.70
2023-05-02T01:29:00.455Z,4.60
2023-05-02T01:31:31.639Z,9.30
2023-05-02T01:34:01.109Z,9.70
2023-05-02T01:36:31.894Z,5.50
2023-05-02T01:39:02.021Z,9.60
2023-05-02T01:41:32.109Z,8.80
2023-05-02T01:44:02.837Z,6.00
2023-05-02T01:46:33.889Z,9.40
2023-05-02T01:49:04.180Z,6.50
2023-05-02T01:51:35.053Z,5.20
2023-05-02T01:54:05.481Z,8.50
2023-05-02T01:56:36.849Z,9.00
2023-05-02T01:59:06.656Z,5.90
2023-05-02T02:01:36.475Z,4.80
2023-05-02T02:04:07.022Z,5.00
2023-05-02T02:06:36.858Z,4.90
2023-05-02T02:09:05.534Z,8.50
2023-05-02T02:11:36.756Z,8.60
2023-05-02T02:14:07.869Z,6.00
2023-05-02T02:16:39.253Z,4.70
2023-05-02T02:19:10.840Z,8.10
2023-05-02T02:21:40.560Z,4.90
2023-05-02T02:24:09.709Z,8.10
2023-05-02T02:26:38.391Z,4.80
2023-05-02T02:29:06.850Z,6.50
2023-05-02T02:31:35.730Z,8.60
2023-05-02T02:34:04.668Z,8.60
2023-05-02T02:36:39.954Z,4.70
2023-05-02T02:39:24.941Z,8.70
2023-05-02T02:42:03.641Z,4.90
2023-05-02T02:44:43.364Z,5.60
2023-05-02T02:47:22.159Z,4.60
2023-05-02T02:49:55.296Z,7.90
2023-05-02T02:52:36.070Z,8.90
2023-05-02T02:55:09.922Z,6.10
2023-05-02T02:57:41.148Z,4.90
2023-05-02T03:00:15.768Z,8.50
2023-05-02T03:02:44.394Z,5.30
2023-05-02T03:05:13.845Z,5.50
2023-05-02T03:07:42.320Z,5.80
2023-05-02T03:10:11.543Z,9.00
2023-05-02T03:12:40.782Z,7.40
2023-05-02T03:15:20.882Z,5.20
2023-05-02T03:17:49.581Z,6.30
2023-05-02T03:20:18.392Z,5.00
2023-05-02T03:22:47.172Z,8.50
2023-05-02T03:25:18.262Z,6.70
2023-05-02T03:27:46.938Z,8.50
2023-05-02T03:30:15.445Z,5.80
2023-05-02T03:32:43.838Z,6.00
2023-05-02T03:35:13.260Z,6.10
2023-05-02T03:37:43.059Z,5.20
2023-05-02T03:40:12.465Z,8.10
2023-05-02T03:42:43.131Z,6.10
2023-05-02T03:45:12.651Z,5.00
2023-05-02T03:47:43.129Z,8.90
2023-05-02T03:50:13.439Z,5.10
2023-05-02T03:52:43.412Z,6.80
2023-05-02T03:55:12.207Z,7.70
2023-05-02T03:57:41.057Z,5.00
2023-05-02T04:00:12.143Z,6.90
2023-05-02T04:02:42.076Z,6.00
2023-05-02T04:05:11.255Z,9.00
2023-05-02T04:07:41.368Z,9.10
2023-05-02T04:10:15.826Z,5.40
2023-05-02T04:12:46.042Z,5.50
2023-05-02T04:15:15.217Z,6.10
2023-05-02T04:17:43.675Z,6.10
2023-05-02T04:20:13.185Z,5.70
2023-05-02T04:22:41.586Z,9.00
2023-05-02T04:25:10.267Z,6.40
2023-05-02T04:27:38.784Z,5.80
2023-05-02T04:30:09.970Z,5.60
2023-05-02T04:32:39.068Z,8.80
2023-05-02T04:35:09.306Z,5.60
2023-05-02T04:37:38.155Z,4.80
2023-05-02T04:40:12.329Z,9.00
2023-05-02T04:45:10.003Z,4.40
2023-05-02T04:47:39.340Z,5.00
2023-05-02T04:50:10.309Z,5.90
2023-05-02T04:52:38.999Z,6.00
2023-05-02T04:55:09.380Z,8.80
2023-05-02T04:57:39.299Z,8.80
2023-05-02T05:00:11.095Z,3.80
2023-05-02T05:02:39.658Z,6.40
2023-05-02T05:05:09.826Z,5.80
2023-05-02T05:07:40.304Z,4.30
2023-05-02T05:10:11.167Z,8.90
2023-05-02T05:12:41.474Z,5.80
2023-05-02T05:15:11.403Z,8.20
2023-05-02T05:17:40.059Z,9.00
2023-05-02T05:20:10.372Z,4.90
2023-05-02T05:22:42.504Z,8.70
2023-05-02T05:25:11.863Z,8.20
2023-05-02T05:27:40.266Z,8.30
2023-05-02T05:30:10.860Z,8.00
2023-05-02T05:32:39.484Z,7.30
2023-05-02T05:35:10.413Z,7.50
2023-05-02T05:37:39.090Z,5.30
2023-05-02T05:40:10.158Z,7.90
2023-05-02T05:42:39.058Z,7.60
2023-05-02T05:45:11.752Z,7.70
2023-05-02T05:47:41.288Z,8.20
2023-05-02T05:50:10.794Z,7.00
2023-05-02T05:52:39.369Z,7.50
2023-05-02T05:55:09.838Z,7.20
2023-05-02T05:57:38.716Z,8.60
2023-05-02T06:00:10.731Z,7.30
2023-05-02T06:02:39.697Z,7.30
2023-05-02T06:05:09.450Z,7.00
2023-05-02T06:07:38.584Z,6.50
2023-05-02T06:10:10.701Z,6.80
2023-05-02T06:12:40.465Z,7.20
2023-05-02T06:15:09.993Z,7.30
2023-05-02T06:17:38.451Z,7.20
2023-05-02T06:20:11.876Z,7.40
2023-05-02T06:22:40.391Z,6.60
2023-05-02T06:25:10.109Z,6.30
2023-05-02T06:27:38.509Z,6.20
2023-05-02T06:30:09.346Z,6.80
2023-05-02T06:32:37.840Z,6.30
2023-05-02T06:35:07.763Z,5.90
2023-05-02T06:37:37.184Z,5.80
2023-05-02T06:40:09.919Z,5.80
2023-05-02T06:42:38.573Z,6.30
2023-05-02T06:45:08.664Z,5.90
2023-05-02T06:47:37.495Z,5.70
2023-05-02T06:50:08.616Z,5.70
2023-05-02T06:52:37.038Z,5.60
2023-05-02T06:55:07.077Z,5.70
2023-05-02T06:57:35.814Z,5.90
2023-05-02T07:00:06.912Z,6.30
2023-05-02T07:02:39.486Z,6.10
2023-05-02T07:05:10.638Z,5.40
2023-05-02T07:07:39.295Z,5.80
2023-05-02T07:10:10.229Z,5.10
2023-05-02T07:12:39.247Z,5.00
2023-05-02T07:15:09.677Z,5.20
2023-05-02T07:17:38.152Z,5.20
2023-05-02T07:20:10.114Z,4.50
2023-05-02T07:22:40.692Z,4.50
2023-05-02T07:25:10.280Z,4.00
2023-05-02T07:27:38.741Z,4.20
2023-05-02T07:30:09.263Z,3.80
2023-05-02T07:32:39.520Z,4.60
2023-05-02T07:35:09.292Z,3.40
2023-05-02T07:37:38.469Z,4.40
2023-05-02T07:40:09.838Z,4.20
2023-05-02T07:42:40.922Z,3.60
2023-05-02T07:45:10.716Z,3.90
2023-05-02T07:47:39.291Z,3.60
2023-05-02T07:50:09.971Z,3.50
2023-05-02T07:52:38.745Z,3.20
2023-05-02T07:55:08.772Z,3.30
2023-05-02T07:57:37.424Z,3.10
2023-05-02T08:00:09.529Z,2.60
2023-05-02T08:02:38.297Z,3.30
2023-05-02T08:05:08.830Z,2.90
2023-05-02T08:07:37.474Z,3.10
2023-05-02T08:10:11.048Z,2.50
2023-05-02T08:12:40.229Z,3.10
2023-05-02T08:15:13.164Z,2.70
2023-05-02T08:17:41.734Z,3.00
2023-05-02T08:20:11.862Z,2.50
2023-05-02T08:22:40.488Z,2.70
2023-05-02T08:25:10.209Z,2.90
2023-05-02T08:27:38.597Z,3.30
2023-05-02T08:30:09.295Z,2.90
2023-05-02T08:32:40.581Z,2.90
2023-05-02T08:35:11.807Z,2.70
2023-05-02T08:37:40.740Z,3.10
2023-05-02T08:40:13.391Z,3.10
2023-05-02T08:42:44.320Z,2.60
2023-05-02T08:45:16.533Z,3.10
2023-05-02T08:47:46.945Z,2.80
2023-05-02T08:50:16.686Z,2.80
2023-05-02T08:52:45.823Z,3.20
2023-05-02T08:55:14.587Z,3.20
2023-05-02T08:57:44.329Z,3.40
2023-05-02T09:00:15.776Z,4.10
2023-05-02T09:03:00.458Z,3.30
2023-05-02T09:05:29.887Z,3.50
2023-05-02T09:08:01.351Z,3.60
2023-05-02T09:10:31.532Z,4.10
2023-05-02T09:13:36.883Z,3.50
2023-05-02T09:16:07.970Z,3.60
2023-05-02T09:18:37.819Z,3.60
2023-05-02T09:21:08.550Z,3.70
2023-05-02T09:23:41.874Z,3.30
2023-05-02T09:26:15.780Z,6.20
2023-05-02T09:28:46.586Z,4.10
2023-05-02T09:31:26.999Z,3.60
2023-05-02T09:34:10.373Z,3.50
2023-05-02T09:36:42.369Z,3.10
2023-05-02T09:39:13.396Z,3.90
2023-05-02T09:41:42.413Z,3.80
2023-05-02T09:44:12.324Z,4.10
2023-05-02T09:46:43.565Z,4.10
2023-05-02T09:49:14.538Z,4.00
2023-05-02T09:51:43.462Z,4.00
2023-05-02T09:54:12.508Z,4.40
2023-05-02T09:56:55.902Z,4.50
2023-05-02T09:59:25.066Z,4.30
2023-05-02T10:01:57.620Z,4.70
2023-05-02T10:04:27.323Z,5.10
2023-05-02T10:07:00.188Z,4.50
2023-05-02T10:09:31.986Z,4.20
2023-05-02T10:12:12.438Z,3.80
2023-05-02T10:14:41.695Z,5.00
2023-05-02T10:17:14.068Z,5.20
2023-05-02T10:19:51.754Z,4.70
2023-05-02T10:22:20.848Z,5.20
2023-05-02T10:24:50.094Z,6.20
2023-05-02T10:27:19.039Z,6.00
2023-05-02T10:29:47.615Z,5.80
2023-05-02T10:32:17.646Z,5.60
2023-05-02T10:34:46.957Z,6.50
2023-05-02T10:37:16.733Z,6.70
2023-05-02T10:39:46.409Z,5.90
2023-05-02T10:42:15.408Z,5.90
2023-05-02T10:44:43.957Z,6.20
2023-05-02T10:47:22.746Z,6.60
2023-05-02T10:49:53.468Z,6.90
2023-05-02T10:52:29.471Z,6.90
2023-05-02T10:55:22.027Z,11.00
2023-05-02T10:58:23.168Z,13.60
2023-05-02T11:00:51.690Z,17.40
2023-05-02T11:03:54.148Z,17.30
2023-05-02T11:06:23.057Z,18.20
2023-05-02T11:08:51.847Z,19.70
2023-05-02T11:11:41.544Z,15.40
2023-05-02T11:14:11.620Z,10.90
2023-05-02T11:17:06.886Z,7.80
2023-05-02T11:20:26.822Z,7.70
2023-05-02T11:22:59.703Z,7.40
2023-05-02T11:25:40.029Z,7.40
2023-05-02T11:28:29.513Z,8.20
2023-05-02T11:30:58.117Z,9.10
2023-05-02T11:33:29.942Z,11.90
2023-05-02T11:35:58.420Z,11.60
2023-05-02T11:38:36.157Z,14.80
2023-05-02T11:41:04.823Z,14.90
2023-05-02T11:43:34.763Z,15.40
2023-05-02T11:46:05.602Z,12.80
2023-05-02T11:48:34.375Z,13.40
2023-05-02T11:51:04.781Z,12.60
2023-05-02T11:53:34.236Z,13.10
2023-05-02T11:56:04.998Z,11.80
2023-05-02T11:58:34.030Z,9.90
2023-05-02T12:01:13.337Z,8.70
2023-05-02T12:03:42.624Z,9.70
2023-05-02T12:06:15.682Z,9.20
2023-05-02T12:08:45.057Z,9.60
2023-05-02T12:11:16.312Z,9.50
2023-05-02T12:13:49.111Z,9.60
2023-05-02T12:16:18.297Z,11.50
2023-05-02T12:18:47.502Z,12.20
2023-05-02T12:21:16.261Z,11.20
2023-05-02T12:23:47.480Z,13.10
2023-05-02T12:26:21.383Z,12.30
2023-05-02T12:28:51.069Z,12.60
2023-05-02T12:31:19.563Z,13.30
2023-05-02T12:33:49.651Z,13.10
2023-05-02T12:36:19.380Z,12.60
2023-05-02T12:38:52.493Z,12.10
2023-05-02T12:41:32.090Z,13.20
2023-05-02T12:44:00.871Z,11.10
2023-05-02T12:46:30.893Z,12.80
2023-05-02T12:49:08.266Z,12.10
2023-05-02T12:51:37.684Z,10.30
2023-05-02T12:54:06.887Z,10.90
2023-05-02T12:56:43.933Z,10.20
2023-05-02T12:59:27.619Z,10.80
2023-05-02T13:01:57.246Z,9.70
2023-05-02T13:04:35.812Z,9.30
2023-05-02T13:07:05.323Z,9.10
2023-05-02T13:09:33.732Z,9.20
2023-05-02T13:12:05.995Z,8.80
2023-05-02T13:14:34.837Z,7.20
2023-05-02T13:17:08.112Z,7.90
2023-05-02T13:19:38.753Z,7.60
2023-05-02T13:22:11.176Z,5.10
2023-05-02T13:24:39.884Z,4.80
2023-05-02T13:27:09.347Z,4.90
2023-05-02T13:29:37.793Z,4.80
2023-05-02T13:32:06.853Z,5.80
2023-05-02T13:34:35.236Z,6.40
2023-05-02T13:37:04.351Z,5.20
2023-05-02T13:39:33.220Z,5.80
2023-05-02T13:42:03.739Z,7.00
2023-05-02T13:44:34.313Z,6.40
2023-05-02T13:47:05.176Z,5.70
2023-05-02T13:49:33.701Z,6.00
2023-05-02T13:52:02.249Z,6.50
2023-05-02T13:54:30.994Z,6.30
2023-05-02T13:56:59.809Z,6.20
2023-05-02T13:59:28.454Z,5.80
2023-05-02T14:01:56.932Z,4.70
2023-05-02T14:04:25.420Z,5.20
2023-05-02T14:06:54.373Z,4.10
2023-05-02T14:09:22.921Z,3.60
2023-05-02T14:11:51.423Z,4.40
2023-05-02T14:14:20.402Z,4.30
2023-05-02T14:16:51.048Z,3.60
2023-05-02T14:19:19.791Z,4.90
2023-05-02T14:21:49.026Z,4.70
2023-05-02T14:24:19.024Z,4.80
2023-05-02T14:26:47.507Z,4.30
2023-05-02T14:29:16.374Z,4.50
2023-05-02T14:31:45.624Z,4.90
2023-05-02T14:34:14.526Z,4.40
2023-05-02T14:36:43.802Z,4.60
2023-05-02T14:39:12.492Z,5.30
2023-05-02T14:41:40.979Z,5.40
2023-05-02T14:44:09.411Z,5.60
2023-05-02T14:46:39.039Z,5.50
2023-05-02T14:49:07.921Z,5.70
2023-05-02T14:51:38.967Z,5.90
2023-05-02T14:54:08.180Z,6.10
2023-05-02T14:56:36.805Z,6.40
2023-05-02T14:59:05.526Z,9.30
2023-05-02T15:01:35.053Z,11.00
2023-05-02T15:04:08.201Z,12.00
2023-05-02T15:06:37.725Z,9.30
2023-05-02T15:09:06.846Z,6.30
2023-05-02T15:11:35.776Z,4.90
2023-05-02T15:14:04.313Z,5.20
2023-05-02T15:16:33.117Z,5.50
2023-05-02T15:19:01.923Z,4.60
2023-05-02T15:21:32.218Z,5.40
2023-05-02T15:24:03.568Z,5.10
2023-05-02T15:26:32.642Z,5.00
2023-05-02T15:29:01.285Z,5.00
2023-05-02T15:31:31.459Z,5.90
2023-05-02T15:34:00.534Z,5.50
2023-05-02T15:36:29.243Z,5.20
2023-05-02T15:38:59.994Z,5.00
2023-05-02T15:41:28.882Z,5.80
2023-05-02T15:43:58.324Z,5.70
2023-05-02T15:46:27.184Z,5.80
2023-05-02T15:48:56.388Z,5.40
2023-05-02T15:51:26.507Z,5.70
2023-05-02T15:53:55.640Z,6.10
2023-05-02T15:56:24.380Z,5.70
2023-05-02T15:58:53.243Z,5.80
2023-05-02T16:01:23.502Z,5.40
2023-05-02T16:03:56.066Z,5.50
2023-05-02T16:06:24.785Z,5.30
2023-05-02T16:08:53.313Z,5.70
2023-05-02T16:11:21.971Z,7.40
2023-05-02T16:13:52.186Z,5.80
2023-05-02T16:16:20.787Z,5.90
2023-05-02T16:18:50.016Z,6.70
2023-05-02T16:21:18.816Z,6.30
2023-05-02T16:23:47.668Z,8.60
2023-05-02T16:26:16.727Z,11.50
2023-05-02T16:28:45.137Z,12.60
2023-05-02T16:31:14.333Z,20.10
2023-05-02T16:33:42.944Z,12.60
2023-05-02T16:36:11.498Z,11.50
2023-05-02T16:38:40.633Z,7.10
2023-05-02T16:41:09.716Z,6.20
2023-05-02T16:43:38.573Z,6.00
2023-05-02T16:46:07.643Z,5.30
2023-05-02T16:48:36.206Z,5.20
2023-05-02T16:51:05.462Z,6.30
2023-05-02T16:53:33.923Z,6.00
2023-05-02T16:56:03.695Z,5.60
2023-05-02T16:58:33.596Z,5.90
2023-05-02T17:01:06.228Z,5.40
2023-05-02T17:03:34.831Z,5.60
2023-05-02T17:06:03.494Z,5.60
2023-05-02T17:08:32.061Z,6.20
2023-05-02T17:11:01.171Z,6.00
2023-05-02T17:13:33.863Z,5.90
2023-05-02T17:16:05.526Z,6.10
2023-05-02T17:18:33.990Z,5.60
2023-05-02T17:21:04.196Z,7.30
2023-05-02T17:23:32.698Z,8.20
2023-05-02T17:26:02.590Z,7.70
2023-05-02T17:28:31.436Z,6.60
2023-05-02T17:31:00.668Z,6.00
2023-05-02T17:33:29.354Z,6.00
2023-05-02T17:35:57.933Z,6.40
2023-05-02T17:38:26.695Z,6.10
2023-05-02T17:40:58.289Z,6.60
2023-05-02T17:43:26.618Z,5.80
2023-05-02T17:45:55.325Z,6.30
2023-05-02T17:48:25.573Z,6.40
2023-05-02T17:50:57.405Z,6.20
2023-05-02T17:53:26.620Z,6.80
2023-05-02T17:55:55.300Z,6.50
2023-05-02T17:58:27.763Z,6.60
2023-05-02T18:00:58.282Z,6.50
2023-05-02T18:03:27.851Z,6.30
2023-05-02T18:05:56.548Z,6.50
2023-05-02T18:08:25.054Z,7.00
2023-05-02T18:10:53.938Z,7.60
2023-05-02T18:13:22.902Z,7.40
2023-05-02T18:15:57.032Z,6.10
2023-05-02T18:18:25.949Z,6.50
2023-05-02T18:20:55.352Z,6.70
2023-05-02T18:23:24.139Z,7.20
2023-05-02T18:25:52.887Z,8.00
2023-05-02T18:28:21.349Z,8.40
2023-05-02T18:30:50.192Z,8.60
2023-05-02T18:33:19.997Z,9.20
2023-05-02T18:35:50.119Z,9.80
2023-05-02T18:38:19.164Z,9.00
2023-05-02T18:40:47.978Z,8.40
2023-05-02T18:43:17.104Z,8.80
2023-05-02T18:45:46.133Z,9.20
2023-05-02T18:48:14.996Z,11.60
2023-05-02T18:50:44.252Z,12.10
2023-05-02T18:53:13.351Z,10.30
2023-05-02T18:55:41.949Z,9.70
2023-05-02T18:58:10.516Z,9.30
2023-05-02T19:00:39.038Z,8.00
2023-05-02T19:03:07.882Z,7.90
2023-05-02T19:05:39.123Z,7.40
2023-05-02T19:08:07.556Z,7.80
2023-05-02T19:10:36.172Z,9.70
2023-05-02T19:13:05.028Z,10.90
2023-05-02T19:15:37.670Z,8.90
2023-05-02T19:18:06.552Z,8.80
2023-05-02T19:20:35.623Z,6.50
2023-05-02T19:23:18.981Z,6.10
2023-05-02T19:25:49.324Z,7.00
2023-05-02T19:28:19.214Z,7.00
2023-05-02T19:30:47.594Z,7.30
2023-05-02T19:33:16.295Z,7.40
2023-05-02T19:35:44.801Z,7.90
2023-05-02T19:38:13.798Z,7.80
2023-05-02T19:40:42.392Z,7.80
2023-05-02T19:43:11.148Z,7.80
2023-05-02T19:45:40.114Z,7.70
2023-05-02T19:48:08.664Z,7.20
2023-05-02T19:50:37.471Z,8.70
2023-05-02T19:53:05.968Z,8.40
2023-05-02T19:55:34.460Z,8.60
2023-05-02T19:58:03.807Z,8.60
2023-05-02T20:00:37.179Z,8.60
2023-05-02T20:03:05.929Z,9.60
2023-05-02T20:05:34.640Z,8.80
2023-05-02T20:08:03.554Z,9.00
2023-05-02T20:10:32.329Z,9.00
2023-05-02T20:13:01.072Z,8.00
2023-05-02T20:15:30.259Z,8.50
2023-05-02T20:18:00.363Z,8.10
2023-05-02T20:20:29.062Z,9.00
2023-05-02T20:22:58.663Z,9.70
2023-05-02T20:25:28.109Z,8.90
2023-05-02T20:27:56.971Z,10.00
2023-05-02T20:30:27.863Z,9.10
2023-05-02T20:32:59.430Z,8.30
2023-05-02T20:35:35.076Z,9.30
2023-05-02T20:38:05.657Z,8.80
2023-05-02T20:40:34.648Z,8.70
2023-05-02T20:43:05.721Z,8.60
2023-05-02T20:45:34.608Z,9.20
2023-05-02T20:48:05.471Z,9.30
2023-05-02T20:50:34.551Z,8.20
2023-05-02T20:53:04.128Z,9.20
2023-05-02T20:55:35.343Z,9.00
2023-05-02T20:58:04.382Z,9.70
2023-05-02T21:00:33.522Z,9.80
2023-05-02T21:03:02.574Z,8.90
2023-05-02T21:05:31.692Z,8.20
2023-05-02T21:08:00.764Z,8.50
2023-05-02T21:10:30.793Z,8.70
2023-05-02T21:12:59.319Z,8.70
2023-05-02T21:15:28.962Z,8.20
2023-05-02T21:18:04.630Z,8.60
2023-05-02T21:20:45.165Z,8.00
2023-05-02T21:23:15.063Z,8.50
2023-05-02T21:25:44.876Z,7.90
2023-05-02T21:28:13.651Z,8.20
2023-05-02T21:30:42.719Z,8.90
2023-05-02T21:33:11.971Z,8.00
2023-05-02T21:35:43.269Z,7.70
2023-05-02T21:38:12.112Z,7.80
2023-05-02T21:40:41.202Z,7.40
2023-05-02T21:43:09.764Z,8.10
2023-05-02T21:45:45.186Z,8.20
2023-05-02T21:48:18.786Z,8.00
2023-05-02T21:50:50.474Z,7.60
2023-05-02T21:53:18.919Z,8.10
2023-05-02T21:55:48.326Z,8.40
2023-05-02T21:58:20.469Z,8.70
2023-05-02T22:00:49.052Z,8.20
2023-05-02T22:03:22.880Z,7.80
2023-05-02T22:05:53.991Z,7.60
2023-05-02T22:08:24.015Z,8.10
2023-05-02T22:10:53.432Z,6.70
2023-05-02T22:13:23.493Z,6.70
2023-05-02T22:15:52.144Z,5.50
2023-05-02T22:18:20.616Z,4.80
2023-05-02T22:20:48.952Z,4.50
2023-05-02T22:23:17.550Z,4.70
2023-05-02T22:25:46.224Z,4.60
2023-05-02T22:28:14.865Z,3.90
2023-05-02T22:30:43.676Z,4.20
2023-05-02T22:33:13.488Z,4.00
2023-05-02T22:35:44.659Z,3.90
2023-05-02T22:38:16.413Z,4.30
2023-05-02T22:40:50.089Z,4.20
2023-05-02T22:43:19.066Z,5.30
2023-05-02T22:45:50.720Z,3.70
2023-05-02T22:48:19.737Z,4.40
2023-05-02T22:50:51.479Z,4.10
2023-05-02T22:53:21.332Z,4.10
2023-05-02T22:55:50.221Z,4.20
2023-05-02T22:58:18.702Z,4.40
2023-05-02T23:00:47.102Z,4.00
2023-05-02T23:03:15.685Z,4.30
2023-05-02T23:05:44.420Z,4.20
2023-05-02T23:08:12.854Z,4.20
2023-05-02T23:10:41.301Z,4.00
2023-05-02T23:13:09.820Z,4.20
2023-05-02T23:15:39.284Z,3.80
2023-05-02T23:18:08.230Z,3.60
2023-05-02T23:20:36.757Z,3.20
2023-05-02T23:23:06.424Z,3.40
2023-05-02T23:25:35.889Z,3.30
2023-05-02T23:28:04.570Z,3.30
2023-05-02T23:30:33.795Z,3.70
2023-05-02T23:33:02.653Z,3.70
2023-05-02T23:35:31.846Z,3.20
2023-05-02T23:38:02.824Z,2.80
2023-05-02T23:40:32.134Z,3.20
2023-05-02T23:43:01.930Z,3.00
2023-05-02T23:45:30.588Z,3.30
2023-05-02T23:47:59.169Z,3.20
2023-05-02T23:50:28.360Z,2.90
2023-05-02T23:52:56.660Z,2.80
2023-05-02T23:55:25.157Z,3.20
2023-05-02T23:57:54.028Z,2.20
